Terminal Aerodrome Forecast
Issued by NWS

Home | Current Version | Previous Version | Text Only | Print | Product List | Glossary On
Versions: 1 2 3 4 5 6 7 8 9 10 11 12 13 14 15 16 17 18 19
345
FTUS41 KBTV 151722
TAFMPV
TAF
KMPV 151722Z 1518/1618 VRB04KT P6SM BKN150
     FM160100 00000KT P6SM VCSH OVC070
      TEMPO 1610/1614 2SM -SN BR OVC025
     FM161400 23004KT P6SM OVC035
     FM161700 29008G18KT P6SM BKN050=

USA.gov is the U.S. government's official web portal to all federal, state and local government web resources and services.